KSHR/SHR METAR and TAF weather

Enter ICAO airport designator
Station Type Date Time Source
KSHR METAR 2021/01/17 18:53 UTC NOAA

KSHR 171853Z AUTO 16006KT 10SM OVC075 05/M05 A2987 RMK AO2 SLP140 T00501050


Station Type Date Time Source
KSHR Decoded METAR 2021/01/17 18:53 UTC NOAA

SHERIDAN COUNTY AIRPORT, WY, United States (KSHR) 44-46N 106-58W 1202M
Jan 17, 2021 - 01:53 PM EST / 2021.01.17 1853 UTC
Wind: from the SSE (160 degrees) at 7 MPH (6 KT):0
Visibility: 10 mile(s):0
Sky conditions: overcast
Temperature: 41.0 F (5.0 C)
Dew Point: 23.0 F (-5.0 C)
Relative Humidity: 48%
Pressure (altimeter): 29.87 in. Hg (1011 hPa)
ob: KSHR 171853Z AUTO 16006KT 10SM OVC075 05/M05 A2987 RMK AO2 SLP140 T00501050
cycle: 19

Station Type Date Time Source
KSHR TAF 2021/01/17 18:36 UTC NOAA

TAF KSHR 171733Z 1718/1818 20006KT P6SM SCT070 BKN100
FM172100 33012G22KT P6SM VCSH SCT025 BKN040
FM180300 32018G30KT 3SM -SN BR SCT015 BKN025

Example: see airport list